createdAt,value
2022-10-08T00:01:37.517Z,15.80
2022-10-08T00:04:22.811Z,15.70
2022-10-08T00:07:08.372Z,16.00
2022-10-08T00:09:53.697Z,15.60
2022-10-08T00:12:39.189Z,15.70
2022-10-08T00:15:24.862Z,16.50
2022-10-08T00:18:10.254Z,15.60
2022-10-08T00:21:09.738Z,15.50
2022-10-08T00:23:55.411Z,15.60
2022-10-08T00:26:43.881Z,16.10
2022-10-08T00:29:29.892Z,15.50
2022-10-08T00:32:15.408Z,15.50
2022-10-08T00:35:00.739Z,15.50
2022-10-08T00:37:46.161Z,15.50
2022-10-08T00:40:32.091Z,15.60
2022-10-08T00:43:17.655Z,15.90
2022-10-08T00:46:04.670Z,15.70
2022-10-08T00:48:59.898Z,15.50
2022-10-08T00:51:49.869Z,15.50
2022-10-08T00:54:36.255Z,15.10
2022-10-08T00:57:22.694Z,15.40
2022-10-08T01:00:12.594Z,15.40
2022-10-08T01:02:58.848Z,15.50
2022-10-08T01:06:20.775Z,15.50
2022-10-08T01:09:21.624Z,15.50
2022-10-08T01:12:35.417Z,15.70
2022-10-08T01:15:26.389Z,15.50
2022-10-08T01:18:37.565Z,15.60
2022-10-08T01:21:43.444Z,15.60
2022-10-08T01:25:04.516Z,15.60
2022-10-08T01:28:00.887Z,15.60
2022-10-08T01:31:31.076Z,15.60
2022-10-08T01:34:40.840Z,15.60
2022-10-08T01:37:31.974Z,15.40
2022-10-08T01:40:21.083Z,15.60
2022-10-08T01:43:09.001Z,15.10
2022-10-08T01:45:59.931Z,16.00
2022-10-08T01:48:47.643Z,15.90
2022-10-08T01:51:39.167Z,15.20
2022-10-08T01:54:27.404Z,15.60
2022-10-08T01:57:13.143Z,15.70
2022-10-08T02:00:13.258Z,15.00
2022-10-08T02:02:58.441Z,15.10
2022-10-08T02:05:50.475Z,15.60
2022-10-08T02:08:35.966Z,15.30
2022-10-08T02:11:21.490Z,15.30
2022-10-08T02:14:07.950Z,15.10
2022-10-08T02:17:37.130Z,15.10
2022-10-08T02:20:37.265Z,15.10
2022-10-08T02:23:37.583Z,15.00
2022-10-08T02:26:32.938Z,14.90
2022-10-08T02:29:52.730Z,15.10
2022-10-08T02:33:04.988Z,15.20
2022-10-08T02:35:55.097Z,15.30
2022-10-08T02:38:46.142Z,15.30
2022-10-08T02:41:39.311Z,15.30
2022-10-08T02:44:41.052Z,14.90
2022-10-08T02:47:30.640Z,15.20
2022-10-08T02:50:20.736Z,15.10
2022-10-08T02:53:06.967Z,15.10
2022-10-08T02:56:05.710Z,15.30
2022-10-08T02:58:51.675Z,15.10
2022-10-08T03:01:48.636Z,15.00
2022-10-08T03:04:53.483Z,14.90
2022-10-08T03:07:38.787Z,15.30
2022-10-08T03:10:26.117Z,15.10
2022-10-08T03:13:13.340Z,16.20
2022-10-08T03:15:58.840Z,15.20
2022-10-08T03:18:44.987Z,15.20
2022-10-08T03:21:32.017Z,15.60
2022-10-08T03:24:17.245Z,15.20
2022-10-08T03:27:03.499Z,15.80
2022-10-08T03:29:48.955Z,15.50
2022-10-08T03:32:34.485Z,15.00
2022-10-08T03:35:20.115Z,15.00
2022-10-08T03:38:05.547Z,14.90
2022-10-08T03:40:56.588Z,14.90
2022-10-08T03:43:42.263Z,16.60
2022-10-08T03:46:27.967Z,14.80
2022-10-08T03:49:13.525Z,14.80
2022-10-08T03:51:58.897Z,14.80
2022-10-08T03:54:44.522Z,14.80
2022-10-08T03:57:29.789Z,14.80
2022-10-08T04:00:15.589Z,14.90
2022-10-08T04:03:00.872Z,14.80
2022-10-08T04:05:49.835Z,14.70
2022-10-08T04:08:35.764Z,14.70
2022-10-08T04:11:21.290Z,14.60
2022-10-08T04:14:06.816Z,15.30
2022-10-08T04:16:54.280Z,14.70
2022-10-08T04:19:39.523Z,14.80
2022-10-08T04:22:25.203Z,15.20
2022-10-08T04:25:10.379Z,14.90
2022-10-08T04:27:55.948Z,15.00
2022-10-08T04:30:41.473Z,15.30
2022-10-08T04:33:27.962Z,15.00
2022-10-08T04:36:15.747Z,15.50
2022-10-08T04:39:01.147Z,14.90
2022-10-08T04:41:46.727Z,14.80
2022-10-08T04:44:31.998Z,14.80
2022-10-08T04:47:17.320Z,14.70
2022-10-08T04:50:03.181Z,15.00
2022-10-08T04:52:48.961Z,15.00
2022-10-08T04:55:34.745Z,15.30
2022-10-08T04:58:20.697Z,15.10
2022-10-08T05:01:07.858Z,15.10
2022-10-08T05:03:55.185Z,15.10
2022-10-08T05:06:40.738Z,15.00
2022-10-08T05:09:26.377Z,15.10
2022-10-08T05:12:11.994Z,15.30
2022-10-08T05:14:57.389Z,14.90
2022-10-08T05:17:43.015Z,14.90
2022-10-08T05:20:28.434Z,15.00
2022-10-08T05:23:13.762Z,15.20
2022-10-08T05:25:59.478Z,15.30
2022-10-08T05:28:47.255Z,15.00
2022-10-08T05:31:36.747Z,15.00
2022-10-08T05:34:22.504Z,16.00
2022-10-08T05:37:07.905Z,14.90
2022-10-08T05:39:53.351Z,15.00
2022-10-08T05:42:38.946Z,15.00
2022-10-08T05:45:24.459Z,15.60
2022-10-08T05:48:10.087Z,15.20
2022-10-08T05:50:55.537Z,15.20
2022-10-08T05:53:44.259Z,15.10
2022-10-08T05:56:31.557Z,15.10
2022-10-08T05:59:20.320Z,15.50
2022-10-08T06:02:05.966Z,14.90
2022-10-08T06:04:51.252Z,15.50
2022-10-08T06:07:36.760Z,14.90
2022-10-08T06:10:22.238Z,15.10
2022-10-08T06:13:07.855Z,15.10
2022-10-08T06:15:57.349Z,15.80
2022-10-08T06:18:45.861Z,15.30
2022-10-08T06:21:32.084Z,15.40
2022-10-08T06:24:17.698Z,15.60
2022-10-08T06:27:03.243Z,15.80
2022-10-08T06:29:48.796Z,15.90
2022-10-08T06:32:34.322Z,16.10
2022-10-08T06:35:19.989Z,16.30
2022-10-08T06:38:05.520Z,16.10
2022-10-08T06:40:50.822Z,16.90
2022-10-08T06:43:36.469Z,16.20
2022-10-08T06:46:22.444Z,16.20
2022-10-08T06:49:07.695Z,16.80
2022-10-08T06:51:53.226Z,16.20
2022-10-08T06:54:38.486Z,16.20
2022-10-08T06:57:24.190Z,16.20
2022-10-08T07:00:10.390Z,16.30
2022-10-08T07:02:57.159Z,16.40
2022-10-08T07:05:44.295Z,16.40
2022-10-08T07:08:29.963Z,16.30
2022-10-08T07:11:17.449Z,16.30
2022-10-08T07:14:03.684Z,16.40
2022-10-08T07:16:49.070Z,17.90
2022-10-08T07:19:34.654Z,16.50
2022-10-08T07:22:20.461Z,16.60
2022-10-08T07:25:06.030Z,16.50
2022-10-08T07:27:51.443Z,16.40
2022-10-08T07:30:36.861Z,16.70
2022-10-08T07:33:22.615Z,17.50
2022-10-08T07:36:15.594Z,16.30
2022-10-08T07:39:07.407Z,16.40
2022-10-08T07:41:52.928Z,16.70
2022-10-08T07:44:38.182Z,16.70
2022-10-08T07:47:23.776Z,16.70
2022-10-08T07:50:09.648Z,16.90
2022-10-08T07:52:55.107Z,16.90
2022-10-08T07:55:40.804Z,16.90
2022-10-08T07:58:26.068Z,17.00
2022-10-08T08:01:17.296Z,17.20
2022-10-08T08:04:07.631Z,17.30
2022-10-08T08:06:53.468Z,18.10
2022-10-08T08:09:38.897Z,18.80
2022-10-08T08:12:24.288Z,18.00
2022-10-08T08:15:10.067Z,17.00
2022-10-08T08:17:56.056Z,17.00
2022-10-08T08:20:42.944Z,17.20
2022-10-08T08:23:32.712Z,16.90
2022-10-08T08:26:22.646Z,17.20
2022-10-08T08:29:12.299Z,17.10
2022-10-08T08:31:57.899Z,17.00
2022-10-08T08:34:43.446Z,17.10
2022-10-08T08:37:28.614Z,17.10
2022-10-08T08:40:14.322Z,17.10
2022-10-08T08:42:59.916Z,17.60
2022-10-08T08:45:47.935Z,17.10
2022-10-08T08:48:38.208Z,16.60
2022-10-08T08:51:23.715Z,16.30
2022-10-08T08:54:09.302Z,16.50
2022-10-08T08:56:55.259Z,16.70
2022-10-08T08:59:44.128Z,16.70
2022-10-08T09:02:35.813Z,16.90
2022-10-08T09:05:22.120Z,16.90
2022-10-08T09:08:22.210Z,16.90
2022-10-08T09:11:15.312Z,17.20
2022-10-08T09:14:36.177Z,17.50
2022-10-08T09:17:31.140Z,17.40
2022-10-08T09:20:18.078Z,17.50
2022-10-08T09:23:14.020Z,17.60
2022-10-08T09:26:09.034Z,17.60
2022-10-08T09:29:05.877Z,17.50
2022-10-08T09:31:51.539Z,17.70
2022-10-08T09:34:37.374Z,17.70
2022-10-08T09:37:25.302Z,19.20
2022-10-08T09:40:13.821Z,17.60
2022-10-08T09:43:19.241Z,17.30
2022-10-08T09:46:27.142Z,17.30
2022-10-08T09:49:31.158Z,17.20
2022-10-08T09:52:28.545Z,17.20
2022-10-08T09:55:21.500Z,17.20
2022-10-08T09:58:16.425Z,17.40
2022-10-08T10:01:12.568Z,17.40
2022-10-08T10:04:00.680Z,17.60
2022-10-08T10:06:48.418Z,17.60
2022-10-08T10:09:47.232Z,17.60
2022-10-08T10:12:39.062Z,17.80
2022-10-08T10:15:43.329Z,18.70
2022-10-08T10:18:39.235Z,18.00
2022-10-08T10:21:49.611Z,18.00
2022-10-08T10:24:49.535Z,18.10
2022-10-08T10:27:56.840Z,18.00
2022-10-08T10:30:58.464Z,18.10
2022-10-08T10:34:09.566Z,18.00
2022-10-08T10:36:59.143Z,18.10
2022-10-08T10:39:53.908Z,18.00
2022-10-08T10:43:21.339Z,18.20
2022-10-08T10:46:23.141Z,18.40
2022-10-08T10:49:22.204Z,18.40
2022-10-08T10:52:38.127Z,18.40
2022-10-08T10:55:29.663Z,18.30
2022-10-08T10:58:56.422Z,18.40
2022-10-08T11:02:21.189Z,18.90
2022-10-08T11:05:06.700Z,18.90
2022-10-08T11:08:17.124Z,19.30
2022-10-08T11:11:41.086Z,19.50
2022-10-08T11:14:44.831Z,19.50
2022-10-08T11:17:54.824Z,19.50
2022-10-08T11:20:49.328Z,19.70
2022-10-08T11:23:40.776Z,19.80
2022-10-08T11:26:40.890Z,19.80
2022-10-08T11:29:43.830Z,20.00
2022-10-08T11:32:31.220Z,20.40
2022-10-08T11:35:28.047Z,20.50
2022-10-08T11:38:31.607Z,20.20
2022-10-08T11:41:21.401Z,19.90
2022-10-08T11:44:09.953Z,20.00
2022-10-08T11:47:46.200Z,20.10
2022-10-08T11:50:34.466Z,20.00
2022-10-08T11:53:22.273Z,19.80
2022-10-08T11:56:10.803Z,19.70
2022-10-08T11:59:07.150Z,19.90
2022-10-08T12:01:59.673Z,19.90
2022-10-08T12:04:47.959Z,20.10
2022-10-08T12:07:37.907Z,20.50
2022-10-08T12:10:33.108Z,20.80
2022-10-08T12:13:28.580Z,20.50
2022-10-08T12:16:14.129Z,20.30
2022-10-08T12:18:59.803Z,20.00
2022-10-08T12:21:50.212Z,21.00
2022-10-08T12:24:38.701Z,19.80
2022-10-08T12:27:25.890Z,19.60
2022-10-08T12:30:14.325Z,19.60
2022-10-08T12:33:00.030Z,19.70
2022-10-08T12:36:06.539Z,19.20
2022-10-08T12:39:24.554Z,19.70
2022-10-08T12:42:31.096Z,19.70
2022-10-08T12:45:24.484Z,20.00
2022-10-08T12:48:33.926Z,20.10
2022-10-08T12:51:40.161Z,20.50
2022-10-08T12:54:29.235Z,19.70
2022-10-08T12:57:48.385Z,19.70
2022-10-08T13:00:34.948Z,19.60
2022-10-08T13:03:21.862Z,19.60
2022-10-08T13:06:30.528Z,19.50
2022-10-08T13:09:37.292Z,19.60
2022-10-08T13:12:24.028Z,19.70
2022-10-08T13:15:23.803Z,19.80
2022-10-08T13:18:22.403Z,19.40
2022-10-08T13:21:26.153Z,18.70
2022-10-08T13:24:11.466Z,18.90
2022-10-08T13:26:57.249Z,18.80
2022-10-08T13:29:42.804Z,19.10
2022-10-08T13:32:35.606Z,19.30
2022-10-08T13:35:24.125Z,19.20
2022-10-08T13:38:20.642Z,19.30
2022-10-08T13:41:07.406Z,19.30
2022-10-08T13:43:52.799Z,19.40
2022-10-08T13:46:38.203Z,19.50
2022-10-08T13:49:27.096Z,19.50
2022-10-08T13:52:16.204Z,19.60
2022-10-08T13:55:04.277Z,19.60
2022-10-08T13:57:50.317Z,19.90
2022-10-08T14:00:39.946Z,19.70
2022-10-08T14:03:25.510Z,19.70
2022-10-08T14:06:11.296Z,19.70
2022-10-08T14:08:57.578Z,19.80
2022-10-08T14:11:43.485Z,19.40
2022-10-08T14:14:29.265Z,19.20
2022-10-08T14:17:15.059Z,19.30
2022-10-08T14:20:00.723Z,19.10
2022-10-08T14:22:46.442Z,19.00
2022-10-08T14:25:32.250Z,19.10
2022-10-08T14:28:17.556Z,18.90
2022-10-08T14:31:03.079Z,18.60
2022-10-08T14:33:48.581Z,18.80
2022-10-08T14:36:37.429Z,18.80
2022-10-08T14:39:23.012Z,18.70
2022-10-08T14:42:08.706Z,18.80
2022-10-08T14:44:54.189Z,18.80
2022-10-08T14:47:39.964Z,18.90
2022-10-08T14:50:25.553Z,18.60
2022-10-08T14:53:11.497Z,18.30
2022-10-08T14:56:11.524Z,18.30
2022-10-08T14:58:58.613Z,18.00
2022-10-08T15:01:44.879Z,17.50
2022-10-08T15:04:30.315Z,17.60
2022-10-08T15:07:15.768Z,17.90
2022-10-08T15:10:01.239Z,17.70
2022-10-08T15:12:47.040Z,17.60
2022-10-08T15:15:33.089Z,17.70
2022-10-08T15:18:18.313Z,16.30
2022-10-08T15:21:04.102Z,17.60
2022-10-08T15:23:49.456Z,17.50
2022-10-08T15:26:35.113Z,18.00
2022-10-08T15:29:20.628Z,17.60
2022-10-08T15:32:05.857Z,17.80
2022-10-08T15:34:51.454Z,17.90
2022-10-08T15:37:37.127Z,17.80
2022-10-08T15:40:22.416Z,17.70
2022-10-08T15:43:07.801Z,18.00
2022-10-08T15:45:53.280Z,17.70
2022-10-08T15:48:39.052Z,17.50
2022-10-08T15:51:25.044Z,17.40
2022-10-08T15:54:10.181Z,17.40
2022-10-08T15:56:55.817Z,17.70
2022-10-08T15:59:41.575Z,17.50
2022-10-08T16:02:26.834Z,19.00
2022-10-08T16:05:14.121Z,17.60
2022-10-08T16:07:59.356Z,17.70
2022-10-08T16:10:44.851Z,17.80
2022-10-08T16:13:30.335Z,18.00
2022-10-08T16:16:19.288Z,17.90
2022-10-08T16:19:11.009Z,17.10
2022-10-08T16:21:57.618Z,17.20
2022-10-08T16:24:42.840Z,17.30
2022-10-08T16:27:28.570Z,17.40
2022-10-08T16:30:14.164Z,17.30
2022-10-08T16:32:59.866Z,17.30
2022-10-08T16:36:01.721Z,17.90
2022-10-08T16:38:53.511Z,17.40
2022-10-08T16:44:41.531Z,17.40
2022-10-08T16:47:27.356Z,17.40
2022-10-08T16:50:13.204Z,17.30
2022-10-08T16:52:59.030Z,17.30
2022-10-08T16:55:44.606Z,17.20
2022-10-08T16:58:30.327Z,17.00
2022-10-08T17:01:15.807Z,17.10
2022-10-08T17:04:02.082Z,16.80
2022-10-08T17:06:47.920Z,16.80
2022-10-08T17:09:37.195Z,16.70
2022-10-08T17:12:22.649Z,16.50
2022-10-08T17:15:08.898Z,16.30
2022-10-08T17:17:55.668Z,16.20
2022-10-08T17:20:42.448Z,16.30
2022-10-08T17:23:34.105Z,16.40
2022-10-08T17:26:22.252Z,16.40
2022-10-08T17:29:10.767Z,16.20
2022-10-08T17:31:56.649Z,16.20
2022-10-08T17:34:42.255Z,16.10
2022-10-08T17:37:28.382Z,16.00
2022-10-08T17:40:14.009Z,16.10
2022-10-08T17:42:59.253Z,16.00
2022-10-08T17:45:45.090Z,15.80
2022-10-08T17:48:31.774Z,15.80
2022-10-08T17:51:22.965Z,16.50
2022-10-08T17:54:12.402Z,15.50
2022-10-08T17:56:58.755Z,15.70
2022-10-08T17:59:44.468Z,15.50
2022-10-08T18:02:29.863Z,15.60
2022-10-08T18:05:15.185Z,15.70
2022-10-08T18:08:00.726Z,15.70
2022-10-08T18:10:48.667Z,15.70
2022-10-08T18:13:34.489Z,15.50
2022-10-08T18:16:21.160Z,15.50
2022-10-08T18:19:08.976Z,15.40
2022-10-08T18:21:54.387Z,15.40
2022-10-08T18:24:39.767Z,15.80
2022-10-08T18:27:25.493Z,15.40
2022-10-08T18:30:11.427Z,15.30
2022-10-08T18:32:57.194Z,15.40
2022-10-08T18:35:42.750Z,15.20
2022-10-08T18:38:28.388Z,15.20
2022-10-08T18:41:18.464Z,15.40
2022-10-08T18:44:06.012Z,15.40
2022-10-08T18:46:52.072Z,15.50
2022-10-08T18:49:37.380Z,15.40
2022-10-08T18:52:25.468Z,15.90
2022-10-08T18:55:10.844Z,15.20
2022-10-08T18:57:56.355Z,15.70
2022-10-08T19:00:43.534Z,15.30
2022-10-08T19:03:29.000Z,15.30
2022-10-08T19:06:15.207Z,15.30
2022-10-08T19:09:01.054Z,15.30
2022-10-08T19:11:51.434Z,15.20
2022-10-08T19:14:37.131Z,15.70
2022-10-08T19:17:22.680Z,15.10
2022-10-08T19:20:08.491Z,15.10
2022-10-08T19:22:53.943Z,15.00
2022-10-08T19:25:39.198Z,15.20
2022-10-08T19:28:24.778Z,15.90
2022-10-08T19:31:19.407Z,15.00
2022-10-08T19:34:07.137Z,15.10
2022-10-08T19:36:52.876Z,15.00
2022-10-08T19:39:43.782Z,15.50
2022-10-08T19:42:29.604Z,15.10
2022-10-08T19:45:15.248Z,15.00
2022-10-08T19:48:00.548Z,14.80
2022-10-08T19:50:46.302Z,15.20
2022-10-08T19:53:31.609Z,14.70
2022-10-08T19:56:17.882Z,14.80
2022-10-08T19:59:04.044Z,14.80
2022-10-08T20:01:49.273Z,14.90
2022-10-08T20:04:34.877Z,14.80
2022-10-08T20:07:20.447Z,14.80
2022-10-08T20:10:06.770Z,14.80
2022-10-08T20:12:53.421Z,14.80
2022-10-08T20:15:39.981Z,14.90
2022-10-08T20:18:25.534Z,14.80
2022-10-08T20:21:12.790Z,14.80
2022-10-08T20:23:58.398Z,14.80
2022-10-08T20:26:44.764Z,14.80
2022-10-08T20:29:31.257Z,14.60
2022-10-08T20:32:17.004Z,14.50
2022-10-08T20:35:02.667Z,14.60
2022-10-08T20:37:48.161Z,14.60
2022-10-08T20:40:33.456Z,14.50
2022-10-08T20:43:19.007Z,14.50
2022-10-08T20:46:10.336Z,14.40
2022-10-08T20:48:55.935Z,14.30
2022-10-08T20:51:43.717Z,14.40
2022-10-08T20:54:29.341Z,14.90
2022-10-08T20:57:14.685Z,15.00
2022-10-08T21:00:00.441Z,14.30
2022-10-08T21:02:46.048Z,15.60
2022-10-08T21:05:31.470Z,14.90
2022-10-08T21:08:16.980Z,14.10
2022-10-08T21:11:04.075Z,14.50
2022-10-08T21:13:49.803Z,14.10
2022-10-08T21:16:37.962Z,14.00
2022-10-08T21:19:23.364Z,14.10
2022-10-08T21:22:08.753Z,13.90
2022-10-08T21:24:54.083Z,14.70
2022-10-08T21:27:39.422Z,14.00
2022-10-08T21:30:24.694Z,13.90
2022-10-08T21:33:10.328Z,15.50
2022-10-08T21:35:57.370Z,13.80
2022-10-08T21:38:43.098Z,13.80
2022-10-08T21:41:33.050Z,13.70
2022-10-08T21:44:19.022Z,13.70
2022-10-08T21:47:04.189Z,13.90
2022-10-08T21:49:49.978Z,13.80
2022-10-08T21:52:35.425Z,13.70
2022-10-08T21:55:20.809Z,13.80
2022-10-08T21:58:06.394Z,14.10
2022-10-08T22:00:52.430Z,14.10
2022-10-08T22:03:38.091Z,14.30
2022-10-08T22:06:24.561Z,15.20
2022-10-08T22:09:21.259Z,13.50
2022-10-08T22:12:06.883Z,13.50
2022-10-08T22:14:52.417Z,13.50
2022-10-08T22:17:37.891Z,14.30
2022-10-08T22:20:23.371Z,13.40
2022-10-08T22:23:08.653Z,13.90
2022-10-08T22:26:03.346Z,14.00
2022-10-08T22:28:49.619Z,13.50
2022-10-08T22:31:35.597Z,13.60
2022-10-08T22:34:21.146Z,13.40
2022-10-08T22:37:06.573Z,13.30
2022-10-08T22:39:51.862Z,13.30
2022-10-08T22:42:37.491Z,13.40
2022-10-08T22:45:23.598Z,13.30
2022-10-08T22:48:08.986Z,13.40
2022-10-08T22:50:54.156Z,13.30
2022-10-08T22:53:39.814Z,13.30
2022-10-08T22:56:28.956Z,13.20
2022-10-08T22:59:14.508Z,13.20
2022-10-08T23:02:00.088Z,14.00
2022-10-08T23:04:45.599Z,13.20
2022-10-08T23:07:31.375Z,13.20
2022-10-08T23:10:16.742Z,13.10
2022-10-08T23:13:02.275Z,12.90
2022-10-08T23:15:47.797Z,13.00
2022-10-08T23:18:35.820Z,13.00
2022-10-08T23:21:21.399Z,13.00
2022-10-08T23:24:07.003Z,13.00
2022-10-08T23:26:52.749Z,12.90
2022-10-08T23:29:38.309Z,13.10
2022-10-08T23:32:24.002Z,13.00
2022-10-08T23:35:09.631Z,12.90
2022-10-08T23:37:54.950Z,12.90
2022-10-08T23:40:40.606Z,12.70
2022-10-08T23:43:27.290Z,12.70
2022-10-08T23:46:14.730Z,13.10
2022-10-08T23:49:00.924Z,12.60
2022-10-08T23:51:46.375Z,13.10
2022-10-08T23:54:31.975Z,12.60
2022-10-08T23:57:19.879Z,12.60
